Time;durP1;ratioP1;P1;durP2;ratioP2;P2;SDS_P1;SDS_P2;PMS_P1;PMS_P2;Temp;Humidity;BMP_temperature;BMP_pressure;BME280_temperature;BME280_humidity;BME280_pressure;Samples;Min_cycle;Max_cycle;Signal;HPM_P1;HPM_P2
2022/12/13 00:00:13;;;;;;;;;;;-4.10;99.90;;;;;;5025646;28;19971;-73
2022/12/13 00:02:42;;;;;;;;;;;-4.10;99.90;;;;;;5019697;28;20385;-73
2022/12/13 00:05:07;;;;;;;;;;;-4.10;99.90;;;;;;5003403;28;19960;-73
2022/12/13 00:07:34;;;;;;;;;;;-4.10;99.90;;;;;;5029070;28;20326;-74
2022/12/13 00:09:59;;;;;;;;;;;-4.10;99.90;;;;;;5010759;28;19963;-74
2022/12/13 00:12:25;;;;;;;;;;;-4.10;99.90;;;;;;5027809;28;19924;-74
2022/12/13 00:14:51;;;;;;;;;;;-4.10;99.90;;;;;;5028260;28;19920;-73
2022/12/13 00:17:16;;;;;;;;;;;-4.00;99.90;;;;;;5028695;28;20318;-73
2022/12/13 00:19:42;;;;;;;;;;;-4.00;99.90;;;;;;5027267;28;20293;-74
2022/12/13 00:22:07;;;;;;;;;;;-4.10;99.90;;;;;;5028485;28;19924;-73
2022/12/13 00:24:33;;;;;;;;;;;-4.10;99.90;;;;;;5028807;28;19917;-74
2022/12/13 00:26:59;;;;;;;;;;;-4.20;99.90;;;;;;5028994;28;19913;-72
2022/12/13 00:29:24;;;;;;;;;;;-4.20;99.90;;;;;;5010757;28;19917;-73
2022/12/13 00:31:50;;;;;;;;;;;-4.20;99.90;;;;;;5011308;28;19913;-73
2022/12/13 00:34:17;;;;;;;;;;;-4.20;99.90;;;;;;5027346;28;20023;-73
2022/12/13 00:36:43;;;;;;;;;;;-4.20;99.90;;;;;;5043732;28;19909;-73
2022/12/13 00:39:11;;;;;;;;;;;-4.20;99.90;;;;;;5011350;28;20349;-73
2022/12/13 00:41:37;;;;;;;;;;;-4.20;99.90;;;;;;5011543;28;19912;-73
2022/12/13 00:44:03;;;;;;;;;;;-4.20;99.90;;;;;;5029322;28;20303;-73
2022/12/13 00:46:29;;;;;;;;;;;-4.20;99.90;;;;;;5029418;28;19944;-73
2022/12/13 00:48:58;;;;;;;;;;;-4.20;99.90;;;;;;5026027;28;20319;-73
2022/12/13 00:51:24;;;;;;;;;;;-4.40;99.90;;;;;;5022986;28;20016;-73
2022/12/13 00:53:49;;;;;;;;;;;-4.40;99.90;;;;;;5009575;28;19996;-73
2022/12/13 00:56:16;;;;;;;;;;;-4.30;99.90;;;;;;5027573;28;19959;-72
2022/12/13 00:58:42;;;;;;;;;;;-4.40;99.90;;;;;;5028461;28;20382;-73
2022/12/13 01:01:08;;;;;;;;;;;-4.30;99.90;;;;;;5022000;28;19955;-73
2022/12/13 01:03:34;;;;;;;;;;;-4.50;99.90;;;;;;5028333;28;19913;-73
2022/12/13 01:06:00;;;;;;;;;;;-4.60;99.90;;;;;;5028216;28;19939;-73
2022/12/13 01:08:26;;;;;;;;;;;-4.60;99.90;;;;;;5032518;28;19990;-74
2022/12/13 01:10:52;;;;;;;;;;;-4.60;99.90;;;;;;4995071;28;19913;-74
2022/12/13 01:13:18;;;;;;;;;;;-4.60;99.90;;;;;;5016236;28;19921;-74
2022/12/13 01:15:44;;;;;;;;;;;-4.60;99.90;;;;;;5032644;28;19917;-73
2022/12/13 01:18:10;;;;;;;;;;;-4.60;99.90;;;;;;5030040;28;20486;-73
2022/12/13 01:20:35;;;;;;;;;;;-4.50;99.90;;;;;;5028283;28;19963;-73
2022/12/13 01:23:01;;;;;;;;;;;-4.50;99.90;;;;;;5031842;28;19909;-74
2022/12/13 01:25:27;;;;;;;;;;;-4.50;99.90;;;;;;5033632;28;19913;-74
2022/12/13 01:27:52;;;;;;;;;;;-4.50;99.90;;;;;;5032765;28;20000;-74
2022/12/13 01:30:18;;;;;;;;;;;-4.60;99.90;;;;;;5035024;28;19995;-74
2022/12/13 01:32:43;;;;;;;;;;;-4.50;99.90;;;;;;5013280;28;19957;-74
2022/12/13 01:35:09;;;;;;;;;;;-4.50;99.90;;;;;;5011333;28;19917;-73
2022/12/13 01:37:35;;;;;;;;;;;-4.50;99.90;;;;;;5031727;28;19923;-73
2022/12/13 01:40:04;;;;;;;;;;;-4.50;99.90;;;;;;5028832;28;19932;-74
2022/12/13 01:42:30;;;;;;;;;;;-4.50;99.90;;;;;;5024869;28;20232;-73
2022/12/13 01:44:56;;;;;;;;;;;-4.50;99.90;;;;;;5015265;28;19919;-73
2022/12/13 01:47:27;;;;;;;;;;;-4.50;99.90;;;;;;5031405;28;19929;-73
2022/12/13 01:49:53;;;;;;;;;;;-4.40;99.90;;;;;;5032249;28;19917;-73
2022/12/13 01:52:19;;;;;;;;;;;-4.50;99.90;;;;;;5031407;28;19928;-73
2022/12/13 01:54:45;;;;;;;;;;;-4.50;99.90;;;;;;5031433;28;19913;-73
2022/12/13 01:57:11;;;;;;;;;;;-4.60;99.90;;;;;;5020845;28;20005;-73
2022/12/13 01:59:37;;;;;;;;;;;-4.60;99.90;;;;;;5027271;28;19960;-73
2022/12/13 02:02:02;;;;;;;;;;;-4.60;99.90;;;;;;5025891;28;20035;-73
2022/12/13 02:04:29;;;;;;;;;;;-4.60;99.90;;;;;;5031340;28;19913;-73
2022/12/13 02:06:55;;;;;;;;;;;-4.60;99.90;;;;;;5029990;28;19975;-73
2022/12/13 02:09:20;;;;;;;;;;;-4.70;99.90;;;;;;5031148;28;19909;-72
2022/12/13 02:11:47;;;;;;;;;;;-4.70;99.90;;;;;;5031153;28;19966;-74
2022/12/13 02:14:12;;;;;;;;;;;-4.80;99.90;;;;;;5031984;28;19917;-73
2022/12/13 02:16:57;;;;;;;;;;;-4.80;99.90;;;;;;5030372;28;19913;-73
2022/12/13 02:19:31;;;;;;;;;;;-4.80;99.90;;;;;;5031353;28;19923;-73
2022/12/13 02:22:15;;;;;;;;;;;-4.90;99.90;;;;;;5031756;28;20266;-73
2022/12/13 02:24:47;;;;;;;;;;;-4.80;99.90;;;;;;5006687;28;20342;-73
2022/12/13 02:27:33;;;;;;;;;;;-4.90;99.90;;;;;;5031755;28;19913;-73
2022/12/13 02:30:11;;;;;;;;;;;-4.90;99.90;;;;;;5024096;28;19913;-74
2022/12/13 02:32:38;;;;;;;;;;;-4.90;99.90;;;;;;5031633;28;19927;-74
2022/12/13 02:35:09;;;;;;;;;;;-4.90;99.90;;;;;;5030042;28;19916;-73
2022/12/13 02:37:34;;;;;;;;;;;-4.90;99.90;;;;;;5030593;28;20295;-73
2022/12/13 02:40:04;;;;;;;;;;;-4.90;99.90;;;;;;5031506;28;20033;-73
2022/12/13 02:42:36;;;;;;;;;;;-4.90;99.90;;;;;;5029443;28;19919;-74
2022/12/13 02:45:06;;;;;;;;;;;-4.90;99.90;;;;;;5031304;28;19913;-73
2022/12/13 02:47:32;;;;;;;;;;;-4.90;99.90;;;;;;5031731;28;20459;-73
2022/12/13 02:49:59;;;;;;;;;;;-4.80;99.90;;;;;;5016946;28;19952;-74
2022/12/13 02:52:25;;;;;;;;;;;-4.80;99.90;;;;;;5027775;28;19959;-74
2022/12/13 02:54:54;;;;;;;;;;;-4.80;99.90;;;;;;5011383;28;19917;-73
2022/12/13 02:57:27;;;;;;;;;;;-4.80;99.90;;;;;;5029402;28;20200;-73
2022/12/13 02:59:52;;;;;;;;;;;-4.90;99.90;;;;;;5011436;28;20250;-73
2022/12/13 03:02:24;;;;;;;;;;;-4.90;99.90;;;;;;4998643;28;19913;-73
2022/12/13 03:08:00;;;;;;;;;;;-4.90;99.90;;;;;;5028664;28;20290;-73
2022/12/13 03:10:32;;;;;;;;;;;-5.00;99.90;;;;;;5013352;28;19959;-73
2022/12/13 03:15:45;;;;;;;;;;;-5.00;99.90;;;;;;5030605;28;19913;-74
2022/12/13 03:18:15;;;;;;;;;;;-5.00;99.90;;;;;;5029330;28;19923;-73
2022/12/13 03:20:51;;;;;;;;;;;-5.00;99.90;;;;;;5009499;28;19920;-73
2022/12/13 03:23:17;;;;;;;;;;;-5.00;99.90;;;;;;5029419;28;19919;-73
2022/12/13 03:25:42;;;;;;;;;;;-5.00;99.90;;;;;;5029202;28;19921;-73
2022/12/13 03:28:08;;;;;;;;;;;-5.00;99.90;;;;;;5012818;28;19913;-74
2022/12/13 03:30:33;;;;;;;;;;;-5.00;99.90;;;;;;5026274;28;20266;-73
2022/12/13 03:32:59;;;;;;;;;;;-5.00;99.90;;;;;;5029512;28;20316;-74
2022/12/13 03:35:25;;;;;;;;;;;-5.00;99.90;;;;;;5030858;28;20243;-73
2022/12/13 03:37:50;;;;;;;;;;;-5.00;99.90;;;;;;5029109;28;20611;-73
2022/12/13 03:40:16;;;;;;;;;;;-5.00;99.90;;;;;;5030392;28;20019;-73
2022/12/13 03:42:42;;;;;;;;;;;-5.00;99.90;;;;;;5029666;28;19952;-74
2022/12/13 03:45:08;;;;;;;;;;;-5.00;99.90;;;;;;5029753;28;19936;-73
2022/12/13 03:47:33;;;;;;;;;;;-5.10;99.90;;;;;;5029566;28;19945;-73
2022/12/13 03:49:59;;;;;;;;;;;-5.20;99.90;;;;;;5030479;28;19917;-74
2022/12/13 03:52:25;;;;;;;;;;;-5.30;99.90;;;;;;5029673;28;19929;-73
2022/12/13 03:54:50;;;;;;;;;;;-5.30;99.90;;;;;;5025108;28;19939;-74
2022/12/13 03:57:16;;;;;;;;;;;-5.30;99.90;;;;;;5030243;28;19913;-74
2022/12/13 03:59:41;;;;;;;;;;;-5.30;99.90;;;;;;5029155;28;20350;-73
2022/12/13 04:02:07;;;;;;;;;;;-5.30;99.90;;;;;;5028706;28;20386;-74
2022/12/13 04:04:33;;;;;;;;;;;-5.30;99.90;;;;;;5030705;28;20295;-73
2022/12/13 04:06:58;;;;;;;;;;;-5.20;99.90;;;;;;5033747;28;19971;-73
2022/12/13 04:09:24;;;;;;;;;;;-5.20;99.90;;;;;;5029017;28;19913;-73
2022/12/13 04:14:34;;;;;;;;;;;-5.20;99.90;;;;;;5029771;28;19920;-74
2022/12/13 04:17:00;;;;;;;;;;;-5.20;99.90;;;;;;5023711;28;19920;-73
2022/12/13 04:19:25;;;;;;;;;;;-5.20;99.90;;;;;;5012564;28;19913;-74
2022/12/13 04:21:52;;;;;;;;;;;-5.30;99.90;;;;;;5028994;28;19912;-74
2022/12/13 04:24:18;;;;;;;;;;;-5.30;99.90;;;;;;5028135;28;19913;-74
2022/12/13 04:26:44;;;;;;;;;;;-5.30;99.90;;;;;;5028651;28;19917;-74
2022/12/13 04:29:10;;;;;;;;;;;-5.30;99.90;;;;;;5028892;28;19975;-74
2022/12/13 04:31:35;;;;;;;;;;;-5.30;99.90;;;;;;5030113;28;19955;-74
2022/12/13 04:34:01;;;;;;;;;;;-5.20;99.90;;;;;;5023143;28;19927;-74
2022/12/13 04:36:27;;;;;;;;;;;-5.20;99.90;;;;;;5028551;28;19996;-74
2022/12/13 04:38:52;;;;;;;;;;;-5.20;99.90;;;;;;5028941;28;19920;-74
2022/12/13 04:41:18;;;;;;;;;;;-5.30;99.90;;;;;;5029435;28;19913;-74
2022/12/13 04:43:44;;;;;;;;;;;-5.30;99.90;;;;;;5027208;28;19979;-75
2022/12/13 04:46:09;;;;;;;;;;;-5.30;99.90;;;;;;5029375;28;20319;-74
2022/12/13 04:48:35;;;;;;;;;;;-5.30;99.90;;;;;;5028847;28;19912;-74
2022/12/13 04:51:01;;;;;;;;;;;-5.30;99.90;;;;;;5027282;28;19944;-74
2022/12/13 04:53:27;;;;;;;;;;;-5.20;99.90;;;;;;5011969;28;20394;-74
2022/12/13 04:55:52;;;;;;;;;;;-5.20;99.90;;;;;;5023040;28;19942;-74
2022/12/13 04:58:18;;;;;;;;;;;-5.30;99.90;;;;;;5029930;28;19913;-73
2022/12/13 05:00:44;;;;;;;;;;;-5.30;99.90;;;;;;5027458;28;19967;-74
2022/12/13 05:03:09;;;;;;;;;;;-5.30;99.90;;;;;;5023791;28;20003;-75
2022/12/13 05:05:37;;;;;;;;;;;-5.30;99.90;;;;;;5024685;28;19913;-74
2022/12/13 05:08:03;;;;;;;;;;;-5.30;99.90;;;;;;5025961;28;20338;-74
2022/12/13 05:10:28;;;;;;;;;;;-5.30;99.90;;;;;;5028407;28;19995;-74
2022/12/13 05:12:54;;;;;;;;;;;-5.30;99.90;;;;;;5029745;28;20049;-74
2022/12/13 05:15:20;;;;;;;;;;;-5.30;99.90;;;;;;5016065;28;20019;-74
2022/12/13 05:17:45;;;;;;;;;;;-5.40;99.90;;;;;;5025977;28;20007;-73
2022/12/13 05:20:11;;;;;;;;;;;-5.40;99.90;;;;;;5028246;28;19983;-74
2022/12/13 05:22:37;;;;;;;;;;;-5.40;99.90;;;;;;5007681;28;19924;-74
2022/12/13 05:25:03;;;;;;;;;;;-5.30;99.90;;;;;;5028342;28;19916;-74
2022/12/13 05:27:30;;;;;;;;;;;-5.30;99.90;;;;;;5028580;28;19917;-74
2022/12/13 05:29:55;;;;;;;;;;;-5.30;99.90;;;;;;5010562;28;20312;-74
2022/12/13 05:32:21;;;;;;;;;;;-5.40;99.90;;;;;;5029224;28;20031;-74
2022/12/13 05:34:47;;;;;;;;;;;-5.40;99.90;;;;;;5028114;28;20016;-74
2022/12/13 05:37:12;;;;;;;;;;;-5.50;99.90;;;;;;5028004;28;19913;-74
2022/12/13 05:39:38;;;;;;;;;;;-5.50;99.90;;;;;;5023261;28;20402;-74
2022/12/13 05:42:04;;;;;;;;;;;-5.50;99.90;;;;;;5028795;28;19924;-74
2022/12/13 05:44:30;;;;;;;;;;;-5.60;99.90;;;;;;5028168;28;19913;-74
2022/12/13 05:46:55;;;;;;;;;;;-5.60;99.90;;;;;;5021834;28;19913;-74
2022/12/13 05:49:21;;;;;;;;;;;-5.60;99.90;;;;;;5026671;28;20576;-74
2022/12/13 05:51:47;;;;;;;;;;;-5.50;99.90;;;;;;5007852;28;19921;-74
2022/12/13 05:54:12;;;;;;;;;;;-5.50;99.90;;;;;;5028577;28;20224;-74
2022/12/13 05:56:38;;;;;;;;;;;-5.50;99.90;;;;;;5015323;28;20003;-75
2022/12/13 05:59:04;;;;;;;;;;;-5.50;99.90;;;;;;5014376;28;19951;-75
2022/12/13 06:01:29;;;;;;;;;;;-5.50;99.90;;;;;;5015403;28;20343;-74
2022/12/13 06:03:55;;;;;;;;;;;-5.60;99.90;;;;;;5031986;28;20000;-74
2022/12/13 06:06:21;;;;;;;;;;;-5.60;99.90;;;;;;5028801;28;20584;-74
2022/12/13 06:08:47;;;;;;;;;;;-5.60;99.90;;;;;;5031351;28;19956;-74
2022/12/13 06:11:14;;;;;;;;;;;-5.60;99.90;;;;;;5030812;28;19913;-74
2022/12/13 06:13:40;;;;;;;;;;;-5.50;99.90;;;;;;5028602;28;20012;-75
2022/12/13 06:16:06;;;;;;;;;;;-5.50;99.90;;;;;;5031341;28;20368;-75
2022/12/13 06:18:32;;;;;;;;;;;-5.50;99.90;;;;;;5031306;28;20338;-75
2022/12/13 06:20:59;;;;;;;;;;;-5.50;99.90;;;;;;5026576;28;19920;-74
2022/12/13 06:23:25;;;;;;;;;;;-5.60;99.90;;;;;;5031836;28;20251;-72
2022/12/13 06:25:50;;;;;;;;;;;-5.60;99.90;;;;;;5029537;28;19913;-74
2022/12/13 06:28:16;;;;;;;;;;;-5.60;99.90;;;;;;5032024;28;20355;-74
2022/12/13 06:30:42;;;;;;;;;;;-5.60;99.90;;;;;;5031549;28;19913;-73
2022/12/13 06:33:07;;;;;;;;;;;-5.50;99.90;;;;;;5011714;28;19978;-73
2022/12/13 06:35:33;;;;;;;;;;;-5.60;99.90;;;;;;5030725;28;19913;-73
2022/12/13 06:37:58;;;;;;;;;;;-5.50;99.90;;;;;;5025093;28;19924;-73
2022/12/13 06:40:24;;;;;;;;;;;-5.60;99.90;;;;;;5031162;28;20011;-74
2022/12/13 06:42:50;;;;;;;;;;;-5.60;99.90;;;;;;5030268;28;19920;-73
2022/12/13 06:45:15;;;;;;;;;;;-5.60;99.90;;;;;;5011698;28;19913;-74
2022/12/13 06:47:41;;;;;;;;;;;-5.60;99.90;;;;;;5014855;28;20255;-73
2022/12/13 06:50:07;;;;;;;;;;;-5.50;99.90;;;;;;5031369;28;20234;-75
2022/12/13 06:52:32;;;;;;;;;;;-5.50;99.90;;;;;;5026705;28;19917;-74
2022/12/13 06:54:58;;;;;;;;;;;-5.50;99.90;;;;;;5030734;28;20366;-74
2022/12/13 06:57:24;;;;;;;;;;;-5.50;99.90;;;;;;5030709;28;19917;-73
2022/12/13 06:59:49;;;;;;;;;;;-5.50;99.90;;;;;;5029334;28;19920;-73
2022/12/13 07:02:15;;;;;;;;;;;-5.50;99.90;;;;;;5013463;28;20293;-74
2022/12/13 07:04:40;;;;;;;;;;;-5.50;99.90;;;;;;5025809;28;20008;-74
2022/12/13 07:07:06;;;;;;;;;;;-5.50;99.90;;;;;;5026857;28;19924;-74
2022/12/13 07:09:32;;;;;;;;;;;-5.50;99.90;;;;;;5010458;28;20014;-73
2022/12/13 07:11:57;;;;;;;;;;;-5.50;99.90;;;;;;5013037;28;19966;-73
2022/12/13 07:14:23;;;;;;;;;;;-5.50;99.90;;;;;;5030240;28;19917;-74
2022/12/13 07:16:48;;;;;;;;;;;-5.50;99.90;;;;;;5029480;28;19913;-74
2022/12/13 07:19:14;;;;;;;;;;;-5.50;99.90;;;;;;5030752;28;19917;-74
2022/12/13 07:21:40;;;;;;;;;;;-5.50;99.90;;;;;;5025579;28;20358;-73
2022/12/13 07:24:05;;;;;;;;;;;-5.40;99.90;;;;;;5030947;28;19924;-74
2022/12/13 07:26:31;;;;;;;;;;;-5.40;99.90;;;;;;5028627;28;19913;-73
2022/12/13 07:28:57;;;;;;;;;;;-5.40;99.90;;;;;;5022651;28;20007;-75
2022/12/13 07:31:23;;;;;;;;;;;-5.40;99.90;;;;;;5030739;28;20415;-74
2022/12/13 07:33:48;;;;;;;;;;;-5.30;99.90;;;;;;5008678;28;20439;-74
2022/12/13 07:36:15;;;;;;;;;;;-5.30;99.90;;;;;;5030089;28;19967;-74
2022/12/13 07:38:40;;;;;;;;;;;-5.30;99.90;;;;;;5029473;28;20263;-74
2022/12/13 07:41:06;;;;;;;;;;;-5.30;99.90;;;;;;5010592;28;19913;-74
2022/12/13 07:43:32;;;;;;;;;;;-5.30;99.90;;;;;;5019432;28;19913;-74
2022/12/13 07:45:58;;;;;;;;;;;-5.20;99.90;;;;;;5028846;28;19913;-72
2022/12/13 07:48:24;;;;;;;;;;;-5.20;99.90;;;;;;5029222;28;19928;-74
2022/12/13 07:50:50;;;;;;;;;;;-5.20;99.90;;;;;;5029576;28;19975;-74
2022/12/13 07:53:15;;;;;;;;;;;-5.10;99.90;;;;;;5026962;28;20591;-75
2022/12/13 07:55:41;;;;;;;;;;;-5.10;99.90;;;;;;5030694;28;20313;-75
2022/12/13 07:58:10;;;;;;;;;;;-5.10;99.90;;;;;;5029495;28;20619;-75
2022/12/13 08:00:36;;;;;;;;;;;-5.20;99.90;;;;;;5011193;28;19920;-73
2022/12/13 08:03:02;;;;;;;;;;;-5.40;99.90;;;;;;5010518;28;19913;-74
2022/12/13 08:05:28;;;;;;;;;;;-5.40;99.90;;;;;;5029108;28;20326;-73
2022/12/13 08:07:53;;;;;;;;;;;-5.40;99.90;;;;;;5029364;28;20035;-74
2022/12/13 08:10:19;;;;;;;;;;;-5.30;99.90;;;;;;5029024;28;19909;-73
2022/12/13 08:12:45;;;;;;;;;;;-5.20;99.90;;;;;;5012671;28;19917;-73
2022/12/13 08:15:10;;;;;;;;;;;-5.20;99.90;;;;;;5025854;28;19913;-73
2022/12/13 08:17:36;;;;;;;;;;;-5.30;99.90;;;;;;5011219;28;19923;-73
2022/12/13 08:20:02;;;;;;;;;;;-5.20;99.90;;;;;;5028788;28;19909;-74
2022/12/13 08:22:28;;;;;;;;;;;-5.20;99.90;;;;;;5028748;28;20065;-73
2022/12/13 08:24:54;;;;;;;;;;;-5.20;99.90;;;;;;5023805;28;20068;-73
2022/12/13 08:27:19;;;;;;;;;;;-5.20;99.90;;;;;;5029155;28;20326;-73
2022/12/13 08:29:45;;;;;;;;;;;-5.20;99.90;;;;;;5028995;28;19912;-74
2022/12/13 08:32:11;;;;;;;;;;;-5.10;99.90;;;;;;5028981;28;20386;-74
2022/12/13 08:34:36;;;;;;;;;;;-5.10;99.90;;;;;;5023643;28;20006;-74
2022/12/13 08:37:02;;;;;;;;;;;-5.10;99.90;;;;;;5031264;28;19970;-75
2022/12/13 08:39:28;;;;;;;;;;;-5.10;99.90;;;;;;5031140;28;19921;-74
2022/12/13 08:41:53;;;;;;;;;;;-5.10;99.90;;;;;;5022852;28;19917;-74
2022/12/13 08:44:22;;;;;;;;;;;-5.00;99.90;;;;;;5027454;28;19919;-74
2022/12/13 08:46:47;;;;;;;;;;;-5.00;99.90;;;;;;5029200;28;19908;-75
2022/12/13 08:49:13;;;;;;;;;;;-5.00;99.90;;;;;;5028317;28;19939;-74
2022/12/13 08:51:39;;;;;;;;;;;-4.90;99.90;;;;;;5025658;28;19948;-74
2022/12/13 08:54:04;;;;;;;;;;;-4.80;99.90;;;;;;5026518;28;19959;-74
2022/12/13 08:56:30;;;;;;;;;;;-4.70;99.90;;;;;;5008785;28;19924;-74
2022/12/13 08:58:56;;;;;;;;;;;-4.60;99.90;;;;;;5027195;28;20000;-74
2022/12/13 09:01:21;;;;;;;;;;;-4.60;99.90;;;;;;5027988;28;20012;-74
2022/12/13 09:03:47;;;;;;;;;;;-4.60;99.90;;;;;;5027917;28;19917;-74
2022/12/13 09:06:13;;;;;;;;;;;-4.60;99.90;;;;;;5027804;28;20016;-76
2022/12/13 09:08:39;;;;;;;;;;;-4.50;99.90;;;;;;5010985;28;20087;-76
2022/12/13 09:11:05;;;;;;;;;;;-4.50;99.90;;;;;;5022379;28;19999;-75
2022/12/13 09:13:31;;;;;;;;;;;-4.40;99.90;;;;;;5026340;28;19917;-73
2022/12/13 09:15:58;;;;;;;;;;;-4.40;99.90;;;;;;5009733;28;19953;-73
2022/12/13 09:18:24;;;;;;;;;;;-4.30;99.90;;;;;;5004116;28;19957;-73
2022/12/13 09:20:50;;;;;;;;;;;-4.30;99.90;;;;;;5027083;28;19913;-74
2022/12/13 09:23:15;;;;;;;;;;;-4.10;99.90;;;;;;5002362;28;19924;-75
2022/12/13 09:25:41;;;;;;;;;;;-4.10;99.90;;;;;;5027848;28;19920;-74
2022/12/13 09:28:07;;;;;;;;;;;-4.00;99.90;;;;;;5026046;28;19913;-76
2022/12/13 09:30:33;;;;;;;;;;;-3.90;99.90;;;;;;5031889;28;19912;-75
2022/12/13 09:32:59;;;;;;;;;;;-3.90;99.90;;;;;;5026008;28;19917;-72
2022/12/13 09:35:24;;;;;;;;;;;-3.70;99.90;;;;;;5032035;28;19917;-74
2022/12/13 09:37:50;;;;;;;;;;;-3.60;99.90;;;;;;5031645;28;20319;-74
2022/12/13 09:40:20;;;;;;;;;;;-3.40;99.90;;;;;;5030837;28;19921;-75
2022/12/13 09:42:47;;;;;;;;;;;-3.20;99.90;;;;;;5015312;28;20324;-74
2022/12/13 09:45:12;;;;;;;;;;;-3.10;99.90;;;;;;5031505;28;19913;-74
2022/12/13 09:47:41;;;;;;;;;;;-2.90;99.90;;;;;;5014354;28;19913;-75
2022/12/13 09:50:08;;;;;;;;;;;-2.80;99.90;;;;;;5031138;28;19913;-73
2022/12/13 09:52:37;;;;;;;;;;;-2.60;99.90;;;;;;5032155;28;19929;-73
2022/12/13 09:55:06;;;;;;;;;;;-2.60;99.90;;;;;;5031357;28;19913;-73
2022/12/13 09:57:32;;;;;;;;;;;-2.50;99.90;;;;;;5030162;28;19920;-73
2022/12/13 09:59:57;;;;;;;;;;;-2.40;99.90;;;;;;5030973;28;19916;-73
2022/12/13 10:02:27;;;;;;;;;;;-2.20;99.90;;;;;;5031514;28;19913;-75
2022/12/13 10:04:53;;;;;;;;;;;-2.00;99.90;;;;;;5030528;28;20223;-74
2022/12/13 10:07:20;;;;;;;;;;;-2.00;99.90;;;;;;5030176;28;20024;-74
2022/12/13 10:09:45;;;;;;;;;;;-1.90;99.90;;;;;;5014544;28;19912;-74
2022/12/13 10:12:12;;;;;;;;;;;-1.80;99.90;;;;;;5031581;28;19912;-74
2022/12/13 10:14:39;;;;;;;;;;;-1.70;99.90;;;;;;5030942;28;20088;-75
2022/12/13 10:17:05;;;;;;;;;;;-1.40;99.90;;;;;;5031305;28;19939;-76
2022/12/13 10:19:34;;;;;;;;;;;-1.20;99.90;;;;;;5026950;28;19940;-75
2022/12/13 10:22:00;;;;;;;;;;;-1.00;99.90;;;;;;5029344;28;20410;-76
2022/12/13 10:24:29;;;;;;;;;;;-0.90;99.90;;;;;;5030794;28;19917;-76
2022/12/13 10:26:55;;;;;;;;;;;-0.70;99.90;;;;;;5015802;28;19971;-75
2022/12/13 10:29:21;;;;;;;;;;;-0.50;99.90;;;;;;5028897;28;19921;-73
2022/12/13 10:31:47;;;;;;;;;;;-0.40;99.90;;;;;;5028211;28;20303;-73
2022/12/13 10:34:24;;;;;;;;;;;-0.20;99.90;;;;;;5024704;28;19960;-73
2022/12/13 10:36:49;;;;;;;;;;;0.00;99.90;;;;;;5029372;28;19966;-73
2022/12/13 10:39:16;;;;;;;;;;;0.20;99.90;;;;;;5029141;28;20293;-73
2022/12/13 10:41:43;;;;;;;;;;;0.40;99.90;;;;;;5030133;28;19908;-73
2022/12/13 10:44:08;;;;;;;;;;;0.60;99.90;;;;;;5007923;28;19920;-73
2022/12/13 10:46:34;;;;;;;;;;;0.90;99.90;;;;;;5027224;28;19916;-72
2022/12/13 10:49:00;;;;;;;;;;;1.00;99.90;;;;;;5029621;28;19924;-73
2022/12/13 10:51:26;;;;;;;;;;;1.00;99.90;;;;;;5029567;28;20370;-73
2022/12/13 10:53:54;;;;;;;;;;;1.30;99.90;;;;;;5028967;28;19917;-73
2022/12/13 10:56:20;;;;;;;;;;;1.40;99.90;;;;;;5029528;28;20009;-74
2022/12/13 10:58:46;;;;;;;;;;;1.70;99.90;;;;;;5013143;28;20403;-73
2022/12/13 11:01:14;;;;;;;;;;;1.50;99.90;;;;;;5025813;28;19913;-73
2022/12/13 11:03:40;;;;;;;;;;;1.90;99.90;;;;;;5029016;28;19956;-73
2022/12/13 11:06:11;;;;;;;;;;;2.30;99.90;;;;;;5013901;28;19946;-73
2022/12/13 11:08:37;;;;;;;;;;;2.40;99.90;;;;;;5029905;28;20254;-73
2022/12/13 11:11:03;;;;;;;;;;;2.70;99.90;;;;;;5030503;28;19913;-73
2022/12/13 11:13:35;;;;;;;;;;;2.90;99.90;;;;;;5028016;28;19935;-73
2022/12/13 11:16:01;;;;;;;;;;;3.10;98.80;;;;;;5030330;28;19928;-73
2022/12/13 11:18:33;;;;;;;;;;;3.40;99.90;;;;;;5011109;28;19916;-73
2022/12/13 11:21:00;;;;;;;;;;;3.60;98.40;;;;;;5028669;28;20323;-74
2022/12/13 11:23:30;;;;;;;;;;;3.70;96.50;;;;;;5029456;28;19913;-74
2022/12/13 11:25:57;;;;;;;;;;;3.80;97.30;;;;;;5029387;28;20607;-74
2022/12/13 11:28:36;;;;;;;;;;;4.30;97.60;;;;;;5029765;28;19943;-74
2022/12/13 11:31:07;;;;;;;;;;;4.30;95.70;;;;;;5011743;28;19913;-74
2022/12/13 11:34:03;;;;;;;;;;;3.70;93.40;;;;;;5024794;28;19918;-74
2022/12/13 11:36:31;;;;;;;;;;;3.50;94.10;;;;;;5027895;28;19916;-81
2022/12/13 11:39:02;;;;;;;;;;;3.90;93.90;;;;;;5024567;28;19925;-73
2022/12/13 11:41:37;;;;;;;;;;;3.50;94.50;;;;;;5023687;28;20426;-74
2022/12/13 11:44:08;;;;;;;;;;;3.70;92.50;;;;;;5029752;28;20614;-74
2022/12/13 11:46:37;;;;;;;;;;;3.90;94.00;;;;;;5028545;28;20020;-73
2022/12/13 11:49:05;;;;;;;;;;;4.00;93.20;;;;;;5024578;28;19963;-73
2022/12/13 11:51:38;;;;;;;;;;;4.00;94.10;;;;;;5025876;28;19912;-74
2022/12/13 11:54:06;;;;;;;;;;;4.00;93.50;;;;;;5010139;28;19921;-74
2022/12/13 11:56:32;;;;;;;;;;;4.00;94.10;;;;;;5011886;28;19924;-74
2022/12/13 11:59:07;;;;;;;;;;;3.90;92.70;;;;;;5012482;28;20215;-74
2022/12/13 12:01:40;;;;;;;;;;;3.80;92.30;;;;;;5029503;28;20020;-72
2022/12/13 12:04:11;;;;;;;;;;;3.70;94.40;;;;;;5010719;28;20348;-72
2022/12/13 12:06:38;;;;;;;;;;;3.90;92.60;;;;;;5009483;28;19910;-73
2022/12/13 12:09:10;;;;;;;;;;;3.90;93.10;;;;;;5009491;28;20272;-74
2022/12/13 12:11:38;;;;;;;;;;;4.00;94.20;;;;;;5012754;28;19917;-72
2022/12/13 12:14:15;;;;;;;;;;;4.10;93.20;;;;;;5028964;28;19921;-76
2022/12/13 12:16:54;;;;;;;;;;;3.90;93.20;;;;;;5022540;28;19912;-72
2022/12/13 12:19:21;;;;;;;;;;;3.70;93.60;;;;;;5012643;28;19913;-71
2022/12/13 12:21:53;;;;;;;;;;;3.80;93.80;;;;;;5027424;28;20035;-74
2022/12/13 12:24:37;;;;;;;;;;;4.00;93.80;;;;;;5030205;28;19971;-74
2022/12/13 12:27:08;;;;;;;;;;;4.10;93.50;;;;;;5024338;28;19920;-73
2022/12/13 12:29:58;;;;;;;;;;;4.30;93.10;;;;;;5011982;28;20679;-71
2022/12/13 12:32:42;;;;;;;;;;;4.30;92.00;;;;;;5021149;28;19913;-74
2022/12/13 12:35:10;;;;;;;;;;;4.50;92.90;;;;;;5029439;28;19971;-72
2022/12/13 12:37:40;;;;;;;;;;;4.50;92.10;;;;;;5027168;28;19920;-73
2022/12/13 12:40:15;;;;;;;;;;;4.70;92.50;;;;;;5012029;28;19920;-73
2022/12/13 12:42:46;;;;;;;;;;;4.30;90.50;;;;;;5029549;28;20068;-71
2022/12/13 12:45:20;;;;;;;;;;;4.40;92.20;;;;;;5029646;28;20369;-72
2022/12/13 12:47:55;;;;;;;;;;;4.60;92.10;;;;;;5025925;28;19920;-74
2022/12/13 12:50:27;;;;;;;;;;;4.60;92.10;;;;;;5028169;28;19952;-72
2022/12/13 12:52:58;;;;;;;;;;;4.60;90.90;;;;;;5028724;28;20380;-74
2022/12/13 12:55:23;;;;;;;;;;;4.40;92.00;;;;;;5011275;28;19924;-75
2022/12/13 12:57:55;;;;;;;;;;;4.20;91.90;;;;;;5030019;28;19912;-76
2022/12/13 13:00:21;;;;;;;;;;;4.20;92.10;;;;;;5025892;28;19924;-73
2022/12/13 13:02:50;;;;;;;;;;;4.10;92.10;;;;;;5008195;28;19947;-71
2022/12/13 13:05:15;;;;;;;;;;;4.10;92.00;;;;;;5028366;28;19924;-71
2022/12/13 13:07:43;;;;;;;;;;;4.10;92.00;;;;;;5031952;28;19913;-72
2022/12/13 13:10:09;;;;;;;;;;;4.00;92.20;;;;;;5032674;28;20047;-74
2022/12/13 13:12:36;;;;;;;;;;;3.90;92.60;;;;;;5029531;28;22217;-73
2022/12/13 13:15:22;;;;;;;;;;;3.90;92.50;;;;;;5019193;28;19914;-72
2022/12/13 13:17:47;;;;;;;;;;;3.80;92.10;;;;;;5032187;28;20326;-75
2022/12/13 13:20:17;;;;;;;;;;;3.70;92.40;;;;;;4999761;28;19909;-74
2022/12/13 13:22:43;;;;;;;;;;;3.50;92.80;;;;;;5026150;28;20346;-72
2022/12/13 13:25:08;;;;;;;;;;;3.40;92.70;;;;;;5029001;28;19909;-72
2022/12/13 13:27:41;;;;;;;;;;;3.10;93.10;;;;;;5032927;28;20240;-72
2022/12/13 13:30:20;;;;;;;;;;;3.20;93.60;;;;;;5020427;28;20474;-76
2022/12/13 13:32:45;;;;;;;;;;;3.20;93.40;;;;;;5011856;28;19928;-68
2022/12/13 13:35:32;;;;;;;;;;;3.30;93.70;;;;;;5014054;28;20412;-68
2022/12/13 13:37:58;;;;;;;;;;;3.30;94.10;;;;;;5031184;28;19913;-76
2022/12/13 13:40:34;;;;;;;;;;;3.40;94.30;;;;;;5033096;28;19921;-78
2022/12/13 13:43:00;;;;;;;;;;;3.50;94.20;;;;;;5002854;28;19924;-75
2022/12/13 13:45:26;;;;;;;;;;;3.50;94.40;;;;;;5032781;28;19912;-74
2022/12/13 13:48:04;;;;;;;;;;;3.50;94.40;;;;;;5010921;28;19967;-80
2022/12/13 13:50:36;;;;;;;;;;;3.50;94.60;;;;;;5014299;28;19948;-75
2022/12/13 13:53:08;;;;;;;;;;;3.50;94.60;;;;;;5032180;28;19917;-73
2022/12/13 13:55:43;;;;;;;;;;;3.60;94.60;;;;;;5030239;28;19923;-73
2022/12/13 13:58:09;;;;;;;;;;;3.50;94.70;;;;;;5032670;28;19912;-75
2022/12/13 14:00:37;;;;;;;;;;;3.40;94.70;;;;;;5030943;28;19927;-75
2022/12/13 14:03:22;;;;;;;;;;;3.30;94.60;;;;;;5032947;28;20289;-75
2022/12/13 14:06:06;;;;;;;;;;;3.20;95.10;;;;;;5032495;28;20060;-74
2022/12/13 14:08:38;;;;;;;;;;;3.20;95.50;;;;;;5024381;28;19943;-73
2022/12/13 14:11:18;;;;;;;;;;;3.20;95.50;;;;;;5032198;28;19921;-75
2022/12/13 14:14:02;;;;;;;;;;;3.20;95.60;;;;;;5031456;28;19924;-75
2022/12/13 14:16:46;;;;;;;;;;;3.20;95.70;;;;;;5028053;28;20350;-75
2022/12/13 14:19:27;;;;;;;;;;;3.10;95.90;;;;;;5031121;28;20409;-75
2022/12/13 14:22:11;;;;;;;;;;;3.00;96.00;;;;;;5014301;28;20643;-70
2022/12/13 14:24:55;;;;;;;;;;;2.90;96.30;;;;;;5031710;28;20003;-70
2022/12/13 14:27:42;;;;;;;;;;;2.70;96.20;;;;;;5017617;28;19960;-70
2022/12/13 14:30:14;;;;;;;;;;;2.50;96.50;;;;;;5011259;28;19955;-70
2022/12/13 14:32:40;;;;;;;;;;;2.40;96.90;;;;;;5028532;28;20349;-69